sensor_id;sensor_type;location;lat;lon;timestamp;temperature;humidity
11112;DHT22;5609;49.466;8.468;2022-10-10T00:01:54;10.00;99.90
11112;DHT22;5609;49.466;8.468;2022-10-10T00:04:21;9.90;99.90
11112;DHT22;5609;49.466;8.468;2022-10-10T00:06:48;9.90;99.90
11112;DHT22;5609;49.466;8.468;2022-10-10T00:09:15;9.90;99.90
11112;DHT22;5609;49.466;8.468;2022-10-10T00:14:09;9.80;99.90
11112;DHT22;5609;49.466;8.468;2022-10-10T00:16:38;9.70;99.90
11112;DHT22;5609;49.466;8.468;2022-10-10T00:19:04;9.70;99.90
11112;DHT22;5609;49.466;8.468;2022-10-10T00:21:31;9.70;99.90
11112;DHT22;5609;49.466;8.468;2022-10-10T00:23:58;9.70;99.90
11112;DHT22;5609;49.466;8.468;2022-10-10T00:26:25;9.70;99.90
11112;DHT22;5609;49.466;8.468;2022-10-10T00:28:51;9.70;99.90
11112;DHT22;5609;49.466;8.468;2022-10-10T00:31:18;9.70;99.90
11112;DHT22;5609;49.466;8.468;2022-10-10T00:33:46;9.60;99.90
11112;DHT22;5609;49.466;8.468;2022-10-10T00:36:13;9.60;99.90
11112;DHT22;5609;49.466;8.468;2022-10-10T00:38:40;9.60;99.90
11112;DHT22;5609;49.466;8.468;2022-10-10T00:41:07;9.50;99.90
11112;DHT22;5609;49.466;8.468;2022-10-10T00:43:34;9.40;99.90
11112;DHT22;5609;49.466;8.468;2022-10-10T00:46:01;9.40;99.90
11112;DHT22;5609;49.466;8.468;2022-10-10T00:48:31;9.40;99.90
11112;DHT22;5609;49.466;8.468;2022-10-10T00:51:02;9.40;99.90
11112;DHT22;5609;49.466;8.468;2022-10-10T00:53:33;9.40;99.90
11112;DHT22;5609;49.466;8.468;2022-10-10T00:56:03;9.40;99.90
11112;DHT22;5609;49.466;8.468;2022-10-10T00:58:30;9.30;99.90
11112;DHT22;5609;49.466;8.468;2022-10-10T01:00:58;9.30;99.90
11112;DHT22;5609;49.466;8.468;2022-10-10T01:03:25;9.30;99.90
11112;DHT22;5609;49.466;8.468;2022-10-10T01:05:52;9.20;99.90
11112;DHT22;5609;49.466;8.468;2022-10-10T01:08:20;9.20;99.90
11112;DHT22;5609;49.466;8.468;2022-10-10T01:11:02;9.20;99.90
11112;DHT22;5609;49.466;8.468;2022-10-10T01:13:34;9.20;99.90
11112;DHT22;5609;49.466;8.468;2022-10-10T01:16:08;9.20;99.90
11112;DHT22;5609;49.466;8.468;2022-10-10T01:18:44;9.20;99.90
11112;DHT22;5609;49.466;8.468;2022-10-10T01:21:24;9.20;99.90
11112;DHT22;5609;49.466;8.468;2022-10-10T01:24:32;9.20;99.90
11112;DHT22;5609;49.466;8.468;2022-10-10T01:27:20;9.20;99.90
11112;DHT22;5609;49.466;8.468;2022-10-10T01:29:53;9.10;99.90
11112;DHT22;5609;49.466;8.468;2022-10-10T01:32:27;9.10;99.90
11112;DHT22;5609;49.466;8.468;2022-10-10T01:35:06;9.10;99.90
11112;DHT22;5609;49.466;8.468;2022-10-10T01:37:40;9.10;99.90
11112;DHT22;5609;49.466;8.468;2022-10-10T01:40:17;9.20;99.90
11112;DHT22;5609;49.466;8.468;2022-10-10T01:42:49;9.10;99.90
11112;DHT22;5609;49.466;8.468;2022-10-10T01:45:17;9.10;99.90
11112;DHT22;5609;49.466;8.468;2022-10-10T01:47:44;9.10;99.90
11112;DHT22;5609;49.466;8.468;2022-10-10T01:50:16;9.10;99.90
11112;DHT22;5609;49.466;8.468;2022-10-10T01:52:50;9.10;99.90
11112;DHT22;5609;49.466;8.468;2022-10-10T01:55:38;9.20;99.90
11112;DHT22;5609;49.466;8.468;2022-10-10T01:58:17;9.10;99.90
11112;DHT22;5609;49.466;8.468;2022-10-10T02:00:55;9.20;99.90
11112;DHT22;5609;49.466;8.468;2022-10-10T02:03:28;9.20;99.90
11112;DHT22;5609;49.466;8.468;2022-10-10T02:05:59;9.20;99.90
11112;DHT22;5609;49.466;8.468;2022-10-10T02:08:31;9.10;99.90
11112;DHT22;5609;49.466;8.468;2022-10-10T02:11:01;9.10;99.90
11112;DHT22;5609;49.466;8.468;2022-10-10T02:13:33;9.10;99.90
11112;DHT22;5609;49.466;8.468;2022-10-10T02:16:05;9.20;99.90
11112;DHT22;5609;49.466;8.468;2022-10-10T02:18:34;9.10;99.90
11112;DHT22;5609;49.466;8.468;2022-10-10T02:21:02;9.10;99.90
11112;DHT22;5609;49.466;8.468;2022-10-10T02:23:30;9.10;99.90
11112;DHT22;5609;49.466;8.468;2022-10-10T02:25:59;9.10;99.90
11112;DHT22;5609;49.466;8.468;2022-10-10T02:28:30;9.10;99.90
11112;DHT22;5609;49.466;8.468;2022-10-10T02:31:04;9.10;99.90
11112;DHT22;5609;49.466;8.468;2022-10-10T02:33:38;9.10;99.90
11112;DHT22;5609;49.466;8.468;2022-10-10T02:36:07;9.00;99.90
11112;DHT22;5609;49.466;8.468;2022-10-10T02:38:35;9.00;99.90
11112;DHT22;5609;49.466;8.468;2022-10-10T02:41:04;8.90;99.90
11112;DHT22;5609;49.466;8.468;2022-10-10T02:43:33;8.90;99.90
11112;DHT22;5609;49.466;8.468;2022-10-10T02:46:01;8.80;99.90
11112;DHT22;5609;49.466;8.468;2022-10-10T02:48:31;8.80;99.90
11112;DHT22;5609;49.466;8.468;2022-10-10T02:50:59;8.80;99.90
11112;DHT22;5609;49.466;8.468;2022-10-10T02:53:25;8.80;99.90
11112;DHT22;5609;49.466;8.468;2022-10-10T02:55:52;8.80;99.90
11112;DHT22;5609;49.466;8.468;2022-10-10T02:58:19;8.80;99.90
11112;DHT22;5609;49.466;8.468;2022-10-10T03:00:46;8.80;99.90
11112;DHT22;5609;49.466;8.468;2022-10-10T03:03:12;8.80;99.90
11112;DHT22;5609;49.466;8.468;2022-10-10T03:05:40;8.90;99.90
11112;DHT22;5609;49.466;8.468;2022-10-10T03:08:07;8.90;99.90
11112;DHT22;5609;49.466;8.468;2022-10-10T03:10:34;8.90;99.90
11112;DHT22;5609;49.466;8.468;2022-10-10T03:13:00;8.90;99.90
11112;DHT22;5609;49.466;8.468;2022-10-10T03:15:27;8.90;99.90
11112;DHT22;5609;49.466;8.468;2022-10-10T03:17:54;9.00;99.90
11112;DHT22;5609;49.466;8.468;2022-10-10T03:20:21;9.00;99.90
11112;DHT22;5609;49.466;8.468;2022-10-10T03:22:49;9.00;99.90
11112;DHT22;5609;49.466;8.468;2022-10-10T03:25:15;9.00;99.90
11112;DHT22;5609;49.466;8.468;2022-10-10T03:27:42;9.10;99.90
11112;DHT22;5609;49.466;8.468;2022-10-10T03:30:10;9.00;99.90
11112;DHT22;5609;49.466;8.468;2022-10-10T03:32:38;9.00;99.90
11112;DHT22;5609;49.466;8.468;2022-10-10T03:35:05;9.00;99.90
11112;DHT22;5609;49.466;8.468;2022-10-10T03:37:32;8.90;99.90
11112;DHT22;5609;49.466;8.468;2022-10-10T03:40:00;8.90;99.90
11112;DHT22;5609;49.466;8.468;2022-10-10T03:42:26;8.90;99.90
11112;DHT22;5609;49.466;8.468;2022-10-10T03:44:53;8.80;99.90
11112;DHT22;5609;49.466;8.468;2022-10-10T03:47:20;8.90;99.90
11112;DHT22;5609;49.466;8.468;2022-10-10T03:49:47;8.80;99.90
11112;DHT22;5609;49.466;8.468;2022-10-10T03:52:13;8.80;99.90
11112;DHT22;5609;49.466;8.468;2022-10-10T03:54:40;8.80;99.90
11112;DHT22;5609;49.466;8.468;2022-10-10T03:57:08;8.80;99.90
11112;DHT22;5609;49.466;8.468;2022-10-10T03:59:35;8.80;99.90
11112;DHT22;5609;49.466;8.468;2022-10-10T04:02:02;8.80;99.90
11112;DHT22;5609;49.466;8.468;2022-10-10T04:04:29;8.70;99.90
11112;DHT22;5609;49.466;8.468;2022-10-10T04:06:55;8.70;99.90
11112;DHT22;5609;49.466;8.468;2022-10-10T04:09:22;8.70;99.90
11112;DHT22;5609;49.466;8.468;2022-10-10T04:11:49;8.70;99.90
11112;DHT22;5609;49.466;8.468;2022-10-10T04:14:17;8.80;99.90
11112;DHT22;5609;49.466;8.468;2022-10-10T04:16:43;8.70;99.90
11112;DHT22;5609;49.466;8.468;2022-10-10T04:19:10;8.70;99.90
11112;DHT22;5609;49.466;8.468;2022-10-10T04:21:37;8.70;99.90
11112;DHT22;5609;49.466;8.468;2022-10-10T04:24:04;8.60;99.90
11112;DHT22;5609;49.466;8.468;2022-10-10T04:26:31;8.60;99.90
11112;DHT22;5609;49.466;8.468;2022-10-10T04:28:57;8.60;99.90
11112;DHT22;5609;49.466;8.468;2022-10-10T04:31:25;8.60;99.90
11112;DHT22;5609;49.466;8.468;2022-10-10T04:33:52;8.60;99.90
11112;DHT22;5609;49.466;8.468;2022-10-10T04:36:19;8.60;99.90
11112;DHT22;5609;49.466;8.468;2022-10-10T04:38:46;8.60;99.90
11112;DHT22;5609;49.466;8.468;2022-10-10T04:41:13;8.60;99.90
11112;DHT22;5609;49.466;8.468;2022-10-10T04:43:39;8.50;99.90
11112;DHT22;5609;49.466;8.468;2022-10-10T04:46:06;8.60;99.90
11112;DHT22;5609;49.466;8.468;2022-10-10T04:48:35;8.50;99.90
11112;DHT22;5609;49.466;8.468;2022-10-10T04:51:02;8.50;99.90
11112;DHT22;5609;49.466;8.468;2022-10-10T04:53:29;8.50;99.90
11112;DHT22;5609;49.466;8.468;2022-10-10T04:55:56;8.50;99.90
11112;DHT22;5609;49.466;8.468;2022-10-10T04:58:23;8.50;99.90
11112;DHT22;5609;49.466;8.468;2022-10-10T05:00:50;8.50;99.90
11112;DHT22;5609;49.466;8.468;2022-10-10T05:03:18;8.40;99.90
11112;DHT22;5609;49.466;8.468;2022-10-10T05:05:46;8.50;99.90
11112;DHT22;5609;49.466;8.468;2022-10-10T05:08:13;8.50;99.90
11112;DHT22;5609;49.466;8.468;2022-10-10T05:10:40;8.50;99.90
11112;DHT22;5609;49.466;8.468;2022-10-10T05:13:08;8.40;99.90
11112;DHT22;5609;49.466;8.468;2022-10-10T05:15:36;8.40;99.90
11112;DHT22;5609;49.466;8.468;2022-10-10T05:18:03;8.40;99.90
11112;DHT22;5609;49.466;8.468;2022-10-10T05:20:30;8.40;99.90
11112;DHT22;5609;49.466;8.468;2022-10-10T05:22:59;8.50;99.90
11112;DHT22;5609;49.466;8.468;2022-10-10T05:25:28;8.50;99.90
11112;DHT22;5609;49.466;8.468;2022-10-10T05:27:55;8.50;99.90
11112;DHT22;5609;49.466;8.468;2022-10-10T05:30:21;8.60;99.90
11112;DHT22;5609;49.466;8.468;2022-10-10T05:32:48;8.60;99.90
11112;DHT22;5609;49.466;8.468;2022-10-10T05:35:15;8.60;99.90
11112;DHT22;5609;49.466;8.468;2022-10-10T05:37:42;8.60;99.90
11112;DHT22;5609;49.466;8.468;2022-10-10T05:40:11;8.60;99.90
11112;DHT22;5609;49.466;8.468;2022-10-10T05:42:38;8.60;99.90
11112;DHT22;5609;49.466;8.468;2022-10-10T05:45:05;8.60;99.90
11112;DHT22;5609;49.466;8.468;2022-10-10T05:47:32;8.70;99.90
11112;DHT22;5609;49.466;8.468;2022-10-10T05:49:59;8.70;99.90
11112;DHT22;5609;49.466;8.468;2022-10-10T05:52:27;8.80;99.90
11112;DHT22;5609;49.466;8.468;2022-10-10T05:54:54;8.80;99.90
11112;DHT22;5609;49.466;8.468;2022-10-10T05:57:22;8.90;99.90
11112;DHT22;5609;49.466;8.468;2022-10-10T05:59:48;9.00;99.90
11112;DHT22;5609;49.466;8.468;2022-10-10T06:02:15;9.00;99.90
11112;DHT22;5609;49.466;8.468;2022-10-10T06:04:42;9.10;99.90
11112;DHT22;5609;49.466;8.468;2022-10-10T06:07:09;9.10;99.90
11112;DHT22;5609;49.466;8.468;2022-10-10T06:09:35;9.20;99.90
11112;DHT22;5609;49.466;8.468;2022-10-10T06:12:02;9.30;99.90
11112;DHT22;5609;49.466;8.468;2022-10-10T06:14:30;9.40;99.90
11112;DHT22;5609;49.466;8.468;2022-10-10T06:16:57;9.40;99.90
11112;DHT22;5609;49.466;8.468;2022-10-10T06:19:24;9.50;99.90
11112;DHT22;5609;49.466;8.468;2022-10-10T06:21:51;9.60;99.90
11112;DHT22;5609;49.466;8.468;2022-10-10T06:24:18;9.60;99.90
11112;DHT22;5609;49.466;8.468;2022-10-10T06:26:44;9.70;99.90
11112;DHT22;5609;49.466;8.468;2022-10-10T06:29:11;9.70;99.90
11112;DHT22;5609;49.466;8.468;2022-10-10T06:31:39;9.80;99.90
11112;DHT22;5609;49.466;8.468;2022-10-10T06:34:06;9.80;99.90
11112;DHT22;5609;49.466;8.468;2022-10-10T06:36:33;9.80;99.90
11112;DHT22;5609;49.466;8.468;2022-10-10T06:39:00;9.90;99.90
11112;DHT22;5609;49.466;8.468;2022-10-10T06:41:27;10.00;99.90
11112;DHT22;5609;49.466;8.468;2022-10-10T06:43:54;10.10;99.90
11112;DHT22;5609;49.466;8.468;2022-10-10T06:46:20;10.20;99.90
11112;DHT22;5609;49.466;8.468;2022-10-10T06:48:48;10.30;99.90
11112;DHT22;5609;49.466;8.468;2022-10-10T06:51:16;10.30;99.90
11112;DHT22;5609;49.466;8.468;2022-10-10T06:53:44;10.40;99.90
11112;DHT22;5609;49.466;8.468;2022-10-10T06:56:11;10.50;99.90
11112;DHT22;5609;49.466;8.468;2022-10-10T06:58:42;10.50;99.90
11112;DHT22;5609;49.466;8.468;2022-10-10T07:01:10;10.60;99.90
11112;DHT22;5609;49.466;8.468;2022-10-10T07:03:37;10.60;99.90
11112;DHT22;5609;49.466;8.468;2022-10-10T07:06:08;10.60;99.90
11112;DHT22;5609;49.466;8.468;2022-10-10T07:08:35;10.60;99.90
11112;DHT22;5609;49.466;8.468;2022-10-10T07:11:02;10.70;99.90
11112;DHT22;5609;49.466;8.468;2022-10-10T07:13:29;10.70;99.90
11112;DHT22;5609;49.466;8.468;2022-10-10T07:15:55;10.70;99.90
11112;DHT22;5609;49.466;8.468;2022-10-10T07:18:22;10.80;99.90
11112;DHT22;5609;49.466;8.468;2022-10-10T07:20:49;10.80;99.90
11112;DHT22;5609;49.466;8.468;2022-10-10T07:23:18;10.80;99.90
11112;DHT22;5609;49.466;8.468;2022-10-10T07:25:44;10.90;99.90
11112;DHT22;5609;49.466;8.468;2022-10-10T07:28:11;11.00;99.90
11112;DHT22;5609;49.466;8.468;2022-10-10T07:30:38;11.00;99.90
11112;DHT22;5609;49.466;8.468;2022-10-10T07:33:07;11.20;99.90
11112;DHT22;5609;49.466;8.468;2022-10-10T07:35:34;11.30;99.90
11112;DHT22;5609;49.466;8.468;2022-10-10T07:38:01;11.40;99.90
11112;DHT22;5609;49.466;8.468;2022-10-10T07:40:29;11.50;99.90
11112;DHT22;5609;49.466;8.468;2022-10-10T07:42:56;11.80;99.90
11112;DHT22;5609;49.466;8.468;2022-10-10T07:45:23;11.90;99.90
11112;DHT22;5609;49.466;8.468;2022-10-10T07:47:51;12.10;99.90
11112;DHT22;5609;49.466;8.468;2022-10-10T07:50:18;12.20;99.90
11112;DHT22;5609;49.466;8.468;2022-10-10T07:52:45;12.30;99.90
11112;DHT22;5609;49.466;8.468;2022-10-10T07:55:11;12.40;99.90
11112;DHT22;5609;49.466;8.468;2022-10-10T07:57:39;12.50;99.90
11112;DHT22;5609;49.466;8.468;2022-10-10T08:00:08;12.50;99.90
11112;DHT22;5609;49.466;8.468;2022-10-10T08:02:35;12.60;99.90
11112;DHT22;5609;49.466;8.468;2022-10-10T08:05:01;12.60;99.90
11112;DHT22;5609;49.466;8.468;2022-10-10T08:07:28;12.70;99.90
11112;DHT22;5609;49.466;8.468;2022-10-10T08:09:55;12.80;99.90
11112;DHT22;5609;49.466;8.468;2022-10-10T08:12:22;12.90;99.90
11112;DHT22;5609;49.466;8.468;2022-10-10T08:14:50;13.00;99.90
11112;DHT22;5609;49.466;8.468;2022-10-10T08:17:16;13.20;99.90
11112;DHT22;5609;49.466;8.468;2022-10-10T08:19:43;13.30;99.90
11112;DHT22;5609;49.466;8.468;2022-10-10T08:22:10;13.50;99.90
11112;DHT22;5609;49.466;8.468;2022-10-10T08:24:37;13.60;99.90
11112;DHT22;5609;49.466;8.468;2022-10-10T08:27:04;13.70;99.90
11112;DHT22;5609;49.466;8.468;2022-10-10T08:29:31;13.80;99.90
11112;DHT22;5609;49.466;8.468;2022-10-10T08:31:59;13.90;99.90
11112;DHT22;5609;49.466;8.468;2022-10-10T08:34:26;14.00;99.90
11112;DHT22;5609;49.466;8.468;2022-10-10T08:36:53;14.30;99.90
11112;DHT22;5609;49.466;8.468;2022-10-10T08:39:19;14.40;99.90
11112;DHT22;5609;49.466;8.468;2022-10-10T08:41:48;14.50;99.90
11112;DHT22;5609;49.466;8.468;2022-10-10T08:44:21;14.60;99.90
11112;DHT22;5609;49.466;8.468;2022-10-10T08:46:51;14.80;99.90
11112;DHT22;5609;49.466;8.468;2022-10-10T08:49:23;14.80;99.90
11112;DHT22;5609;49.466;8.468;2022-10-10T08:51:58;14.90;99.90
11112;DHT22;5609;49.466;8.468;2022-10-10T08:54:27;14.90;99.90
11112;DHT22;5609;49.466;8.468;2022-10-10T08:57:02;15.00;99.90
11112;DHT22;5609;49.466;8.468;2022-10-10T08:59:33;15.10;99.90
11112;DHT22;5609;49.466;8.468;2022-10-10T09:02:27;15.30;99.90
11112;DHT22;5609;49.466;8.468;2022-10-10T09:04:56;15.40;99.90
11112;DHT22;5609;49.466;8.468;2022-10-10T09:07:32;15.60;99.90
11112;DHT22;5609;49.466;8.468;2022-10-10T09:10:09;15.90;99.90
11112;DHT22;5609;49.466;8.468;2022-10-10T09:12:44;16.00;99.90
11112;DHT22;5609;49.466;8.468;2022-10-10T09:15:18;16.00;99.90
11112;DHT22;5609;49.466;8.468;2022-10-10T09:17:50;16.10;99.90
11112;DHT22;5609;49.466;8.468;2022-10-10T09:20:36;16.20;99.90
11112;DHT22;5609;49.466;8.468;2022-10-10T09:23:14;16.10;99.90
11112;DHT22;5609;49.466;8.468;2022-10-10T09:25:45;16.20;99.90
11112;DHT22;5609;49.466;8.468;2022-10-10T09:28:16;16.40;99.90
11112;DHT22;5609;49.466;8.468;2022-10-10T09:30:48;16.50;99.90
11112;DHT22;5609;49.466;8.468;2022-10-10T09:33:25;16.50;99.90
11112;DHT22;5609;49.466;8.468;2022-10-10T09:35:57;16.70;99.90
11112;DHT22;5609;49.466;8.468;2022-10-10T09:38:31;16.80;99.90
11112;DHT22;5609;49.466;8.468;2022-10-10T09:41:01;16.90;99.90
11112;DHT22;5609;49.466;8.468;2022-10-10T09:43:31;17.10;99.90
11112;DHT22;5609;49.466;8.468;2022-10-10T09:45:58;17.20;99.90
11112;DHT22;5609;49.466;8.468;2022-10-10T09:48:28;17.50;99.90
11112;DHT22;5609;49.466;8.468;2022-10-10T09:50:58;17.60;99.90
11112;DHT22;5609;49.466;8.468;2022-10-10T09:53:25;17.80;99.90
11112;DHT22;5609;49.466;8.468;2022-10-10T09:55:53;18.00;99.90
11112;DHT22;5609;49.466;8.468;2022-10-10T09:58:25;18.10;99.90
11112;DHT22;5609;49.466;8.468;2022-10-10T10:00:53;18.30;99.90
11112;DHT22;5609;49.466;8.468;2022-10-10T10:03:21;18.40;99.90
11112;DHT22;5609;49.466;8.468;2022-10-10T10:05:54;18.40;99.90
11112;DHT22;5609;49.466;8.468;2022-10-10T10:08:28;18.50;99.90
11112;DHT22;5609;49.466;8.468;2022-10-10T10:10:56;18.60;99.90
11112;DHT22;5609;49.466;8.468;2022-10-10T10:13:29;18.60;99.90
11112;DHT22;5609;49.466;8.468;2022-10-10T10:16:03;18.70;99.90
11112;DHT22;5609;49.466;8.468;2022-10-10T10:18:37;18.80;99.90
11112;DHT22;5609;49.466;8.468;2022-10-10T10:21:14;18.90;99.90
11112;DHT22;5609;49.466;8.468;2022-10-10T10:23:49;18.90;99.90
11112;DHT22;5609;49.466;8.468;2022-10-10T10:26:19;19.10;99.90
11112;DHT22;5609;49.466;8.468;2022-10-10T10:28:48;19.20;99.90
11112;DHT22;5609;49.466;8.468;2022-10-10T10:31:26;19.20;99.90
11112;DHT22;5609;49.466;8.468;2022-10-10T10:34:05;19.20;99.90
11112;DHT22;5609;49.466;8.468;2022-10-10T10:36:43;19.30;99.90
11112;DHT22;5609;49.466;8.468;2022-10-10T10:39:23;19.50;99.90
11112;DHT22;5609;49.466;8.468;2022-10-10T10:41:55;19.60;99.90
11112;DHT22;5609;49.466;8.468;2022-10-10T10:44:31;19.70;99.90
11112;DHT22;5609;49.466;8.468;2022-10-10T10:47:13;19.90;99.90
11112;DHT22;5609;49.466;8.468;2022-10-10T10:49:46;19.80;99.90
11112;DHT22;5609;49.466;8.468;2022-10-10T10:52:24;19.90;99.90
11112;DHT22;5609;49.466;8.468;2022-10-10T10:55:11;20.00;99.90
11112;DHT22;5609;49.466;8.468;2022-10-10T10:57:50;20.10;99.90
11112;DHT22;5609;49.466;8.468;2022-10-10T11:00:19;20.30;99.90
11112;DHT22;5609;49.466;8.468;2022-10-10T11:02:55;20.40;99.90
11112;DHT22;5609;49.466;8.468;2022-10-10T11:05:36;20.50;99.90
11112;DHT22;5609;49.466;8.468;2022-10-10T11:08:18;20.70;99.90
11112;DHT22;5609;49.466;8.468;2022-10-10T11:10:52;20.70;99.90
11112;DHT22;5609;49.466;8.468;2022-10-10T11:13:27;20.90;99.90
11112;DHT22;5609;49.466;8.468;2022-10-10T11:16:00;21.00;99.90
11112;DHT22;5609;49.466;8.468;2022-10-10T11:18:32;21.20;99.90
11112;DHT22;5609;49.466;8.468;2022-10-10T11:21:04;21.40;99.90
11112;DHT22;5609;49.466;8.468;2022-10-10T11:23:34;21.40;99.90
11112;DHT22;5609;49.466;8.468;2022-10-10T11:26:10;21.60;99.90
11112;DHT22;5609;49.466;8.468;2022-10-10T11:28:40;21.70;99.90
11112;DHT22;5609;49.466;8.468;2022-10-10T11:31:13;21.70;99.90
11112;DHT22;5609;49.466;8.468;2022-10-10T11:33:46;21.80;99.90
11112;DHT22;5609;49.466;8.468;2022-10-10T11:36:16;21.90;99.90
11112;DHT22;5609;49.466;8.468;2022-10-10T11:38:47;22.10;99.90
11112;DHT22;5609;49.466;8.468;2022-10-10T11:41:20;22.20;99.90
11112;DHT22;5609;49.466;8.468;2022-10-10T11:43:52;22.40;99.90
11112;DHT22;5609;49.466;8.468;2022-10-10T11:46:26;22.60;99.90
11112;DHT22;5609;49.466;8.468;2022-10-10T11:49:01;22.60;99.90
11112;DHT22;5609;49.466;8.468;2022-10-10T11:51:44;22.80;99.90
11112;DHT22;5609;49.466;8.468;2022-10-10T11:54:21;22.70;99.90
11112;DHT22;5609;49.466;8.468;2022-10-10T11:56:53;22.90;99.90
11112;DHT22;5609;49.466;8.468;2022-10-10T11:59:26;22.90;99.90
11112;DHT22;5609;49.466;8.468;2022-10-10T12:01:57;23.10;99.90
11112;DHT22;5609;49.466;8.468;2022-10-10T12:04:33;23.30;99.90
11112;DHT22;5609;49.466;8.468;2022-10-10T12:07:03;23.60;99.90
11112;DHT22;5609;49.466;8.468;2022-10-10T12:09:33;23.80;99.90
11112;DHT22;5609;49.466;8.468;2022-10-10T12:12:05;23.90;99.90
11112;DHT22;5609;49.466;8.468;2022-10-10T12:14:38;24.00;99.90
11112;DHT22;5609;49.466;8.468;2022-10-10T12:17:17;24.50;99.90
11112;DHT22;5609;49.466;8.468;2022-10-10T12:19:46;24.80;99.90
11112;DHT22;5609;49.466;8.468;2022-10-10T12:22:21;25.00;99.90
11112;DHT22;5609;49.466;8.468;2022-10-10T12:25:20;25.20;99.90
11112;DHT22;5609;49.466;8.468;2022-10-10T12:28:05;25.40;99.90
11112;DHT22;5609;49.466;8.468;2022-10-10T12:30:32;25.50;99.90
11112;DHT22;5609;49.466;8.468;2022-10-10T12:32:59;25.60;99.90
11112;DHT22;5609;49.466;8.468;2022-10-10T12:35:32;25.70;99.90
11112;DHT22;5609;49.466;8.468;2022-10-10T12:38:19;26.10;99.90
11112;DHT22;5609;49.466;8.468;2022-10-10T12:41:10;26.40;99.90
11112;DHT22;5609;49.466;8.468;2022-10-10T12:43:50;26.70;98.10
11112;DHT22;5609;49.466;8.468;2022-10-10T12:46:26;27.00;95.40
11112;DHT22;5609;49.466;8.468;2022-10-10T12:49:00;27.30;92.40
11112;DHT22;5609;49.466;8.468;2022-10-10T12:51:33;27.20;87.60
11112;DHT22;5609;49.466;8.468;2022-10-10T12:54:04;27.20;89.10
11112;DHT22;5609;49.466;8.468;2022-10-10T12:56:37;27.60;81.20
11112;DHT22;5609;49.466;8.468;2022-10-10T12:59:17;27.30;75.40
11112;DHT22;5609;49.466;8.468;2022-10-10T13:01:49;27.60;80.00
11112;DHT22;5609;49.466;8.468;2022-10-10T13:04:18;28.10;70.40
11112;DHT22;5609;49.466;8.468;2022-10-10T13:06:46;28.50;57.60
11112;DHT22;5609;49.466;8.468;2022-10-10T13:09:17;28.80;49.20
11112;DHT22;5609;49.466;8.468;2022-10-10T13:11:56;28.90;42.30
11112;DHT22;5609;49.466;8.468;2022-10-10T13:14:26;29.50;36.30
11112;DHT22;5609;49.466;8.468;2022-10-10T13:17:02;29.60;29.30
11112;DHT22;5609;49.466;8.468;2022-10-10T13:19:29;29.80;30.20
11112;DHT22;5609;49.466;8.468;2022-10-10T13:21:56;29.40;28.00
11112;DHT22;5609;49.466;8.468;2022-10-10T13:24:27;29.30;27.80
11112;DHT22;5609;49.466;8.468;2022-10-10T13:26:55;29.10;28.50
11112;DHT22;5609;49.466;8.468;2022-10-10T13:29:28;28.90;28.80
11112;DHT22;5609;49.466;8.468;2022-10-10T13:31:59;28.80;30.70
11112;DHT22;5609;49.466;8.468;2022-10-10T13:34:30;29.30;26.40
11112;DHT22;5609;49.466;8.468;2022-10-10T13:37:00;29.80;23.00
11112;DHT22;5609;49.466;8.468;2022-10-10T13:39:28;30.00;22.80
11112;DHT22;5609;49.466;8.468;2022-10-10T13:41:56;30.30;20.60
11112;DHT22;5609;49.466;8.468;2022-10-10T13:44:29;30.60;17.90
11112;DHT22;5609;49.466;8.468;2022-10-10T13:46:56;30.50;17.40
11112;DHT22;5609;49.466;8.468;2022-10-10T13:49:25;30.40;18.40
11112;DHT22;5609;49.466;8.468;2022-10-10T13:52:02;30.30;18.20
11112;DHT22;5609;49.466;8.468;2022-10-10T13:54:41;30.30;17.80
11112;DHT22;5609;49.466;8.468;2022-10-10T13:57:14;30.40;18.30
11112;DHT22;5609;49.466;8.468;2022-10-10T13:59:46;30.20;14.90
11112;DHT22;5609;49.466;8.468;2022-10-10T14:02:16;29.70;17.90
11112;DHT22;5609;49.466;8.468;2022-10-10T14:04:47;29.00;19.20
11112;DHT22;5609;49.466;8.468;2022-10-10T14:07:18;28.50;24.70
11112;DHT22;5609;49.466;8.468;2022-10-10T14:09:50;28.20;27.30
11112;DHT22;5609;49.466;8.468;2022-10-10T14:12:23;27.80;31.60
11112;DHT22;5609;49.466;8.468;2022-10-10T14:14:54;27.60;37.70
11112;DHT22;5609;49.466;8.468;2022-10-10T14:17:22;27.30;45.30
11112;DHT22;5609;49.466;8.468;2022-10-10T14:19:49;26.90;53.50
11112;DHT22;5609;49.466;8.468;2022-10-10T14:22:19;26.80;47.90
11112;DHT22;5609;49.466;8.468;2022-10-10T14:24:46;26.40;47.80
11112;DHT22;5609;49.466;8.468;2022-10-10T14:27:21;26.20;52.00
11112;DHT22;5609;49.466;8.468;2022-10-10T14:29:49;26.10;55.70
11112;DHT22;5609;49.466;8.468;2022-10-10T14:32:17;25.80;61.10
11112;DHT22;5609;49.466;8.468;2022-10-10T14:34:45;25.60;62.40
11112;DHT22;5609;49.466;8.468;2022-10-10T14:37:18;25.50;68.80
11112;DHT22;5609;49.466;8.468;2022-10-10T14:39:46;25.00;74.40
11112;DHT22;5609;49.466;8.468;2022-10-10T14:42:14;24.80;75.80
11112;DHT22;5609;49.466;8.468;2022-10-10T14:44:41;24.60;88.70
11112;DHT22;5609;49.466;8.468;2022-10-10T14:47:13;24.40;91.40
11112;DHT22;5609;49.466;8.468;2022-10-10T14:49:42;24.20;93.00
11112;DHT22;5609;49.466;8.468;2022-10-10T14:52:09;24.10;96.10
11112;DHT22;5609;49.466;8.468;2022-10-10T14:54:36;24.00;99.60
11112;DHT22;5609;49.466;8.468;2022-10-10T14:57:03;24.00;99.90
11112;DHT22;5609;49.466;8.468;2022-10-10T14:59:30;24.00;99.90
11112;DHT22;5609;49.466;8.468;2022-10-10T15:01:57;23.90;99.90
11112;DHT22;5609;49.466;8.468;2022-10-10T15:04:23;23.90;99.90
11112;DHT22;5609;49.466;8.468;2022-10-10T15:06:52;23.80;99.90
11112;DHT22;5609;49.466;8.468;2022-10-10T15:09:18;23.70;99.90
11112;DHT22;5609;49.466;8.468;2022-10-10T15:11:45;23.60;99.90
11112;DHT22;5609;49.466;8.468;2022-10-10T15:14:12;23.70;99.90
11112;DHT22;5609;49.466;8.468;2022-10-10T15:16:39;23.90;99.90
11112;DHT22;5609;49.466;8.468;2022-10-10T15:19:06;24.10;99.90
11112;DHT22;5609;49.466;8.468;2022-10-10T15:21:32;24.10;99.90
11112;DHT22;5609;49.466;8.468;2022-10-10T15:24:00;23.90;99.90
11112;DHT22;5609;49.466;8.468;2022-10-10T15:26:27;23.60;99.90
11112;DHT22;5609;49.466;8.468;2022-10-10T15:28:54;23.40;99.90
11112;DHT22;5609;49.466;8.468;2022-10-10T15:31:25;23.20;99.90
11112;DHT22;5609;49.466;8.468;2022-10-10T15:33:54;23.00;99.90
11112;DHT22;5609;49.466;8.468;2022-10-10T15:36:20;22.90;99.90
11112;DHT22;5609;49.466;8.468;2022-10-10T15:38:47;22.90;99.90
11112;DHT22;5609;49.466;8.468;2022-10-10T15:41:15;23.00;99.90
11112;DHT22;5609;49.466;8.468;2022-10-10T15:43:44;23.10;99.90
11112;DHT22;5609;49.466;8.468;2022-10-10T15:46:11;23.10;99.90
11112;DHT22;5609;49.466;8.468;2022-10-10T15:48:38;23.10;99.90
11112;DHT22;5609;49.466;8.468;2022-10-10T15:51:06;23.10;99.90
11112;DHT22;5609;49.466;8.468;2022-10-10T15:53:33;23.00;99.90
11112;DHT22;5609;49.466;8.468;2022-10-10T15:56:06;22.80;99.90
11112;DHT22;5609;49.466;8.468;2022-10-10T15:58:34;22.60;99.90
11112;DHT22;5609;49.466;8.468;2022-10-10T16:01:08;22.40;99.90
11112;DHT22;5609;49.466;8.468;2022-10-10T16:03:35;22.30;99.90
11112;DHT22;5609;49.466;8.468;2022-10-10T16:06:02;22.10;99.90
11112;DHT22;5609;49.466;8.468;2022-10-10T16:08:29;22.00;99.90
11112;DHT22;5609;49.466;8.468;2022-10-10T16:10:56;21.90;99.90
11112;DHT22;5609;49.466;8.468;2022-10-10T16:13:22;21.80;99.90